sensor_id;sensor_type;location;lat;lon;timestamp;P1;durP1;ratioP1;P2;durP2;ratioP2
20671;SDS011;10495;50.922;4.760;2022-11-21T00:01:59;2.90;;;1.33;;
20671;SDS011;10495;50.922;4.760;2022-11-21T00:04:24;2.67;;;1.10;;
20671;SDS011;10495;50.922;4.760;2022-11-21T00:06:50;6.17;;;1.77;;
20671;SDS011;10495;50.922;4.760;2022-11-21T00:09:16;4.83;;;1.30;;
20671;SDS011;10495;50.922;4.760;2022-11-21T00:11:42;3.07;;;1.27;;
20671;SDS011;10495;50.922;4.760;2022-11-21T00:14:08;2.90;;;1.00;;
20671;SDS011;10495;50.922;4.760;2022-11-21T00:16:33;2.27;;;0.90;;
20671;SDS011;10495;50.922;4.760;2022-11-21T00:18:59;2.43;;;1.07;;
20671;SDS011;10495;50.922;4.760;2022-11-21T00:21:24;1.40;;;0.80;;
20671;SDS011;10495;50.922;4.760;2022-11-21T00:23:50;3.70;;;0.90;;
20671;SDS011;10495;50.922;4.760;2022-11-21T00:26:16;1.67;;;0.90;;
20671;SDS011;10495;50.922;4.760;2022-11-21T00:28:42;3.63;;;0.87;;
20671;SDS011;10495;50.922;4.760;2022-11-21T00:31:08;1.30;;;1.00;;
20671;SDS011;10495;50.922;4.760;2022-11-21T00:33:46;1.50;;;0.90;;
20671;SDS011;10495;50.922;4.760;2022-11-21T00:36:11;2.87;;;1.10;;
20671;SDS011;10495;50.922;4.760;2022-11-21T00:38:37;2.93;;;1.13;;
20671;SDS011;10495;50.922;4.760;2022-11-21T00:41:02;2.30;;;1.13;;
20671;SDS011;10495;50.922;4.760;2022-11-21T00:43:28;3.27;;;1.20;;
20671;SDS011;10495;50.922;4.760;2022-11-21T00:45:54;5.60;;;1.63;;
20671;SDS011;10495;50.922;4.760;2022-11-21T00:48:19;1.97;;;1.20;;
20671;SDS011;10495;50.922;4.760;2022-11-21T00:50:47;3.53;;;1.53;;
20671;SDS011;10495;50.922;4.760;2022-11-21T00:53:13;6.00;;;1.73;;
20671;SDS011;10495;50.922;4.760;2022-11-21T00:55:39;7.67;;;2.30;;
20671;SDS011;10495;50.922;4.760;2022-11-21T00:58:05;7.60;;;2.60;;
20671;SDS011;10495;50.922;4.760;2022-11-21T01:00:32;5.63;;;2.47;;
20671;SDS011;10495;50.922;4.760;2022-11-21T01:02:58;6.97;;;2.23;;
20671;SDS011;10495;50.922;4.760;2022-11-21T01:05:24;3.47;;;2.23;;
20671;SDS011;10495;50.922;4.760;2022-11-21T01:07:50;6.80;;;3.30;;
20671;SDS011;10495;50.922;4.760;2022-11-21T01:10:15;6.80;;;2.77;;
20671;SDS011;10495;50.922;4.760;2022-11-21T01:12:41;11.50;;;3.67;;
20671;SDS011;10495;50.922;4.760;2022-11-21T01:15:08;5.23;;;2.80;;
20671;SDS011;10495;50.922;4.760;2022-11-21T01:17:34;7.87;;;3.30;;
20671;SDS011;10495;50.922;4.760;2022-11-21T01:19:59;7.13;;;3.33;;
20671;SDS011;10495;50.922;4.760;2022-11-21T01:22:25;11.13;;;2.87;;
20671;SDS011;10495;50.922;4.760;2022-11-21T01:24:50;10.00;;;3.80;;
20671;SDS011;10495;50.922;4.760;2022-11-21T01:27:16;11.07;;;3.43;;
20671;SDS011;10495;50.922;4.760;2022-11-21T01:29:41;11.30;;;4.20;;
20671;SDS011;10495;50.922;4.760;2022-11-21T01:32:07;5.70;;;2.83;;
20671;SDS011;10495;50.922;4.760;2022-11-21T01:34:33;9.73;;;3.60;;
20671;SDS011;10495;50.922;4.760;2022-11-21T01:36:58;8.53;;;3.77;;
20671;SDS011;10495;50.922;4.760;2022-11-21T01:39:25;9.23;;;3.20;;
20671;SDS011;10495;50.922;4.760;2022-11-21T01:41:50;11.00;;;3.90;;
20671;SDS011;10495;50.922;4.760;2022-11-21T01:46:41;7.73;;;3.27;;
20671;SDS011;10495;50.922;4.760;2022-11-21T01:51:52;10.33;;;3.63;;
20671;SDS011;10495;50.922;4.760;2022-11-21T01:54:29;13.47;;;3.10;;
20671;SDS011;10495;50.922;4.760;2022-11-21T02:02:09;12.30;;;3.77;;
20671;SDS011;10495;50.922;4.760;2022-11-21T02:04:37;5.13;;;3.47;;
20671;SDS011;10495;50.922;4.760;2022-11-21T02:07:06;6.87;;;3.17;;
20671;SDS011;10495;50.922;4.760;2022-11-21T02:09:33;6.43;;;2.87;;
20671;SDS011;10495;50.922;4.760;2022-11-21T02:12:03;8.03;;;3.10;;
20671;SDS011;10495;50.922;4.760;2022-11-21T02:14:32;7.73;;;3.03;;
20671;SDS011;10495;50.922;4.760;2022-11-21T02:17:00;9.47;;;3.77;;
20671;SDS011;10495;50.922;4.760;2022-11-21T02:25:06;5.33;;;2.87;;
20671;SDS011;10495;50.922;4.760;2022-11-21T02:27:32;6.77;;;3.03;;
20671;SDS011;10495;50.922;4.760;2022-11-21T02:29:58;5.57;;;3.10;;
20671;SDS011;10495;50.922;4.760;2022-11-21T02:32:35;9.33;;;3.47;;
20671;SDS011;10495;50.922;4.760;2022-11-21T02:35:03;7.27;;;2.90;;
20671;SDS011;10495;50.922;4.760;2022-11-21T02:37:29;7.47;;;3.13;;
20671;SDS011;10495;50.922;4.760;2022-11-21T02:39:56;8.23;;;3.23;;
20671;SDS011;10495;50.922;4.760;2022-11-21T02:45:15;10.53;;;3.37;;
20671;SDS011;10495;50.922;4.760;2022-11-21T02:47:52;8.63;;;3.03;;
20671;SDS011;10495;50.922;4.760;2022-11-21T02:50:24;6.83;;;3.10;;
20671;SDS011;10495;50.922;4.760;2022-11-21T02:52:52;8.00;;;3.20;;
20671;SDS011;10495;50.922;4.760;2022-11-21T02:55:19;8.30;;;3.00;;
20671;SDS011;10495;50.922;4.760;2022-11-21T02:57:44;7.13;;;2.63;;
20671;SDS011;10495;50.922;4.760;2022-11-21T03:00:10;6.40;;;2.40;;
20671;SDS011;10495;50.922;4.760;2022-11-21T03:02:36;8.37;;;3.37;;
20671;SDS011;10495;50.922;4.760;2022-11-21T03:05:02;8.67;;;2.90;;
20671;SDS011;10495;50.922;4.760;2022-11-21T03:07:29;5.07;;;2.57;;
20671;SDS011;10495;50.922;4.760;2022-11-21T03:09:55;6.43;;;2.60;;
20671;SDS011;10495;50.922;4.760;2022-11-21T03:12:21;6.80;;;2.37;;
20671;SDS011;10495;50.922;4.760;2022-11-21T03:14:47;7.53;;;2.50;;
20671;SDS011;10495;50.922;4.760;2022-11-21T03:17:12;8.93;;;3.03;;
20671;SDS011;10495;50.922;4.760;2022-11-21T03:19:38;7.47;;;3.00;;
20671;SDS011;10495;50.922;4.760;2022-11-21T03:22:03;8.33;;;3.00;;
20671;SDS011;10495;50.922;4.760;2022-11-21T03:24:29;6.33;;;2.07;;
20671;SDS011;10495;50.922;4.760;2022-11-21T03:26:55;2.70;;;2.10;;
20671;SDS011;10495;50.922;4.760;2022-11-21T03:29:21;7.27;;;2.80;;
20671;SDS011;10495;50.922;4.760;2022-11-21T03:31:46;4.27;;;2.17;;
20671;SDS011;10495;50.922;4.760;2022-11-21T03:34:12;6.70;;;2.23;;
20671;SDS011;10495;50.922;4.760;2022-11-21T03:36:37;5.60;;;2.37;;
20671;SDS011;10495;50.922;4.760;2022-11-21T03:39:03;5.50;;;2.60;;
20671;SDS011;10495;50.922;4.760;2022-11-21T03:41:29;8.27;;;2.70;;
20671;SDS011;10495;50.922;4.760;2022-11-21T03:43:55;4.77;;;2.60;;
20671;SDS011;10495;50.922;4.760;2022-11-21T03:46:24;8.80;;;2.40;;
20671;SDS011;10495;50.922;4.760;2022-11-21T03:48:50;4.77;;;2.40;;
20671;SDS011;10495;50.922;4.760;2022-11-21T03:51:16;4.37;;;2.60;;
20671;SDS011;10495;50.922;4.760;2022-11-21T03:53:42;9.17;;;2.50;;
20671;SDS011;10495;50.922;4.760;2022-11-21T03:56:08;5.07;;;2.57;;
20671;SDS011;10495;50.922;4.760;2022-11-21T03:58:33;5.63;;;2.43;;
20671;SDS011;10495;50.922;4.760;2022-11-21T04:00:59;7.30;;;2.50;;
20671;SDS011;10495;50.922;4.760;2022-11-21T04:03:24;9.93;;;2.87;;
20671;SDS011;10495;50.922;4.760;2022-11-21T04:05:50;7.93;;;2.70;;
20671;SDS011;10495;50.922;4.760;2022-11-21T04:08:16;5.83;;;2.33;;
20671;SDS011;10495;50.922;4.760;2022-11-21T04:10:48;5.87;;;2.53;;
20671;SDS011;10495;50.922;4.760;2022-11-21T04:13:15;5.67;;;2.03;;
20671;SDS011;10495;50.922;4.760;2022-11-21T04:15:41;8.10;;;2.80;;
20671;SDS011;10495;50.922;4.760;2022-11-21T04:18:07;5.57;;;2.50;;
20671;SDS011;10495;50.922;4.760;2022-11-21T04:20:33;8.37;;;2.63;;
20671;SDS011;10495;50.922;4.760;2022-11-21T04:22:59;9.13;;;2.63;;
20671;SDS011;10495;50.922;4.760;2022-11-21T04:25:24;5.03;;;2.13;;
20671;SDS011;10495;50.922;4.760;2022-11-21T04:27:50;5.17;;;2.30;;
20671;SDS011;10495;50.922;4.760;2022-11-21T04:30:15;8.83;;;2.60;;
20671;SDS011;10495;50.922;4.760;2022-11-21T04:32:41;6.43;;;2.90;;
20671;SDS011;10495;50.922;4.760;2022-11-21T04:35:08;3.40;;;2.30;;
20671;SDS011;10495;50.922;4.760;2022-11-21T04:37:34;6.27;;;2.47;;
20671;SDS011;10495;50.922;4.760;2022-11-21T04:40:02;4.90;;;2.50;;
20671;SDS011;10495;50.922;4.760;2022-11-21T04:42:28;6.07;;;2.70;;
20671;SDS011;10495;50.922;4.760;2022-11-21T04:44:54;9.87;;;2.47;;
20671;SDS011;10495;50.922;4.760;2022-11-21T04:47:19;7.73;;;2.47;;
20671;SDS011;10495;50.922;4.760;2022-11-21T04:49:45;8.10;;;2.67;;
20671;SDS011;10495;50.922;4.760;2022-11-21T04:52:10;7.50;;;2.70;;
20671;SDS011;10495;50.922;4.760;2022-11-21T04:54:36;10.17;;;2.70;;
20671;SDS011;10495;50.922;4.760;2022-11-21T04:57:02;7.33;;;2.90;;
20671;SDS011;10495;50.922;4.760;2022-11-21T04:59:28;9.00;;;2.93;;
20671;SDS011;10495;50.922;4.760;2022-11-21T05:01:53;7.63;;;3.50;;
20671;SDS011;10495;50.922;4.760;2022-11-21T05:04:19;6.00;;;2.97;;
20671;SDS011;10495;50.922;4.760;2022-11-21T05:06:44;6.80;;;3.50;;
20671;SDS011;10495;50.922;4.760;2022-11-21T05:09:10;7.57;;;3.70;;
20671;SDS011;10495;50.922;4.760;2022-11-21T05:11:35;10.60;;;3.10;;
20671;SDS011;10495;50.922;4.760;2022-11-21T05:14:19;9.23;;;2.87;;
20671;SDS011;10495;50.922;4.760;2022-11-21T05:16:45;6.90;;;3.23;;
20671;SDS011;10495;50.922;4.760;2022-11-21T05:19:11;8.47;;;3.50;;
20671;SDS011;10495;50.922;4.760;2022-11-21T05:21:36;10.33;;;2.67;;
20671;SDS011;10495;50.922;4.760;2022-11-21T05:24:02;8.77;;;2.97;;
20671;SDS011;10495;50.922;4.760;2022-11-21T05:26:27;6.43;;;2.70;;
20671;SDS011;10495;50.922;4.760;2022-11-21T05:28:53;6.30;;;2.90;;
20671;SDS011;10495;50.922;4.760;2022-11-21T05:31:19;7.17;;;2.83;;
20671;SDS011;10495;50.922;4.760;2022-11-21T05:33:44;5.93;;;3.00;;
20671;SDS011;10495;50.922;4.760;2022-11-21T05:36:10;5.07;;;2.73;;
20671;SDS011;10495;50.922;4.760;2022-11-21T05:38:35;4.87;;;2.70;;
20671;SDS011;10495;50.922;4.760;2022-11-21T05:41:01;5.40;;;2.80;;
20671;SDS011;10495;50.922;4.760;2022-11-21T05:43:26;8.00;;;2.57;;
20671;SDS011;10495;50.922;4.760;2022-11-21T05:46:11;8.13;;;2.63;;
20671;SDS011;10495;50.922;4.760;2022-11-21T05:48:47;6.70;;;2.67;;
20671;SDS011;10495;50.922;4.760;2022-11-21T05:51:14;4.57;;;2.23;;
20671;SDS011;10495;50.922;4.760;2022-11-21T05:53:41;5.97;;;2.13;;
20671;SDS011;10495;50.922;4.760;2022-11-21T05:56:08;9.63;;;3.00;;
20671;SDS011;10495;50.922;4.760;2022-11-21T05:58:36;4.20;;;2.20;;
20671;SDS011;10495;50.922;4.760;2022-11-21T06:01:02;4.50;;;2.20;;
20671;SDS011;10495;50.922;4.760;2022-11-21T06:03:29;4.73;;;2.47;;
20671;SDS011;10495;50.922;4.760;2022-11-21T06:08:35;4.83;;;1.97;;
20671;SDS011;10495;50.922;4.760;2022-11-21T06:11:07;4.90;;;2.23;;
20671;SDS011;10495;50.922;4.760;2022-11-21T06:13:33;6.27;;;2.27;;
20671;SDS011;10495;50.922;4.760;2022-11-21T06:16:01;9.27;;;2.73;;
20671;SDS011;10495;50.922;4.760;2022-11-21T06:18:35;6.00;;;2.70;;
20671;SDS011;10495;50.922;4.760;2022-11-21T06:21:06;5.57;;;2.20;;
20671;SDS011;10495;50.922;4.760;2022-11-21T06:23:42;5.80;;;2.40;;
20671;SDS011;10495;50.922;4.760;2022-11-21T06:26:12;5.93;;;2.43;;
20671;SDS011;10495;50.922;4.760;2022-11-21T06:28:40;6.73;;;2.00;;
20671;SDS011;10495;50.922;4.760;2022-11-21T06:31:11;6.13;;;2.47;;
20671;SDS011;10495;50.922;4.760;2022-11-21T06:33:38;8.37;;;2.20;;
20671;SDS011;10495;50.922;4.760;2022-11-21T06:36:09;6.67;;;1.80;;
20671;SDS011;10495;50.922;4.760;2022-11-21T06:38:36;6.20;;;2.00;;
20671;SDS011;10495;50.922;4.760;2022-11-21T06:41:06;3.53;;;1.80;;
20671;SDS011;10495;50.922;4.760;2022-11-21T06:43:36;8.70;;;2.50;;
20671;SDS011;10495;50.922;4.760;2022-11-21T06:46:02;7.27;;;2.27;;
20671;SDS011;10495;50.922;4.760;2022-11-21T06:48:28;8.27;;;2.43;;
20671;SDS011;10495;50.922;4.760;2022-11-21T06:50:57;4.67;;;2.13;;
20671;SDS011;10495;50.922;4.760;2022-11-21T06:53:30;7.50;;;2.10;;
20671;SDS011;10495;50.922;4.760;2022-11-21T06:55:59;6.80;;;2.20;;
20671;SDS011;10495;50.922;4.760;2022-11-21T06:58:26;4.83;;;1.70;;
20671;SDS011;10495;50.922;4.760;2022-11-21T07:00:52;4.83;;;2.10;;
20671;SDS011;10495;50.922;4.760;2022-11-21T07:03:18;3.70;;;1.80;;
20671;SDS011;10495;50.922;4.760;2022-11-21T07:05:45;6.13;;;2.13;;
20671;SDS011;10495;50.922;4.760;2022-11-21T07:08:10;7.23;;;2.43;;
20671;SDS011;10495;50.922;4.760;2022-11-21T07:10:36;9.10;;;2.40;;
20671;SDS011;10495;50.922;4.760;2022-11-21T07:13:01;6.27;;;1.93;;
20671;SDS011;10495;50.922;4.760;2022-11-21T07:15:45;8.13;;;2.13;;
20671;SDS011;10495;50.922;4.760;2022-11-21T07:18:12;6.17;;;2.27;;
20671;SDS011;10495;50.922;4.760;2022-11-21T07:20:38;8.90;;;2.67;;
20671;SDS011;10495;50.922;4.760;2022-11-21T07:23:05;3.90;;;2.23;;
20671;SDS011;10495;50.922;4.760;2022-11-21T07:25:31;4.60;;;2.17;;
20671;SDS011;10495;50.922;4.760;2022-11-21T07:28:01;6.13;;;2.60;;
20671;SDS011;10495;50.922;4.760;2022-11-21T07:30:27;4.33;;;1.80;;
20671;SDS011;10495;50.922;4.760;2022-11-21T07:32:56;4.63;;;2.27;;
20671;SDS011;10495;50.922;4.760;2022-11-21T07:35:23;9.53;;;2.53;;
20671;SDS011;10495;50.922;4.760;2022-11-21T07:37:49;9.70;;;2.43;;
20671;SDS011;10495;50.922;4.760;2022-11-21T07:40:14;10.63;;;2.57;;
20671;SDS011;10495;50.922;4.760;2022-11-21T07:42:40;6.53;;;3.23;;
20671;SDS011;10495;50.922;4.760;2022-11-21T07:45:06;7.40;;;2.77;;
20671;SDS011;10495;50.922;4.760;2022-11-21T07:47:32;9.37;;;3.10;;
20671;SDS011;10495;50.922;4.760;2022-11-21T07:49:57;13.67;;;6.90;;
20671;SDS011;10495;50.922;4.760;2022-11-21T07:52:23;11.00;;;3.33;;
20671;SDS011;10495;50.922;4.760;2022-11-21T07:54:49;9.03;;;3.30;;
20671;SDS011;10495;50.922;4.760;2022-11-21T07:57:15;9.53;;;3.70;;
20671;SDS011;10495;50.922;4.760;2022-11-21T07:59:40;6.77;;;3.47;;
20671;SDS011;10495;50.922;4.760;2022-11-21T08:02:06;9.60;;;3.90;;
20671;SDS011;10495;50.922;4.760;2022-11-21T08:04:37;18.53;;;10.10;;
20671;SDS011;10495;50.922;4.760;2022-11-21T08:07:03;10.03;;;3.60;;
20671;SDS011;10495;50.922;4.760;2022-11-21T08:09:28;8.53;;;3.40;;
20671;SDS011;10495;50.922;4.760;2022-11-21T08:11:54;9.47;;;3.63;;
20671;SDS011;10495;50.922;4.760;2022-11-21T08:14:19;9.83;;;3.33;;
20671;SDS011;10495;50.922;4.760;2022-11-21T08:16:45;7.43;;;3.03;;
20671;SDS011;10495;50.922;4.760;2022-11-21T08:19:10;7.20;;;3.30;;
20671;SDS011;10495;50.922;4.760;2022-11-21T08:21:36;13.73;;;3.87;;
20671;SDS011;10495;50.922;4.760;2022-11-21T08:24:02;6.40;;;2.97;;
20671;SDS011;10495;50.922;4.760;2022-11-21T08:26:27;7.13;;;3.30;;
20671;SDS011;10495;50.922;4.760;2022-11-21T08:28:53;10.83;;;2.83;;
20671;SDS011;10495;50.922;4.760;2022-11-21T08:31:18;11.43;;;3.47;;
20671;SDS011;10495;50.922;4.760;2022-11-21T08:33:44;6.27;;;2.80;;
20671;SDS011;10495;50.922;4.760;2022-11-21T08:36:09;5.97;;;2.43;;
20671;SDS011;10495;50.922;4.760;2022-11-21T08:38:35;5.50;;;2.10;;
20671;SDS011;10495;50.922;4.760;2022-11-21T08:41:01;7.63;;;2.50;;
20671;SDS011;10495;50.922;4.760;2022-11-21T08:43:45;7.10;;;2.53;;
20671;SDS011;10495;50.922;4.760;2022-11-21T08:46:10;7.53;;;2.10;;
20671;SDS011;10495;50.922;4.760;2022-11-21T08:48:36;6.37;;;2.60;;
20671;SDS011;10495;50.922;4.760;2022-11-21T08:51:01;9.60;;;2.67;;
20671;SDS011;10495;50.922;4.760;2022-11-21T08:53:27;5.87;;;2.33;;
20671;SDS011;10495;50.922;4.760;2022-11-21T08:55:53;6.40;;;2.47;;
20671;SDS011;10495;50.922;4.760;2022-11-21T08:58:18;4.67;;;2.27;;
20671;SDS011;10495;50.922;4.760;2022-11-21T09:00:44;4.87;;;2.30;;
20671;SDS011;10495;50.922;4.760;2022-11-21T09:03:10;5.00;;;1.80;;
20671;SDS011;10495;50.922;4.760;2022-11-21T09:05:35;10.90;;;2.80;;
20671;SDS011;10495;50.922;4.760;2022-11-21T09:08:01;11.57;;;2.80;;
20671;SDS011;10495;50.922;4.760;2022-11-21T09:10:26;9.47;;;2.63;;
20671;SDS011;10495;50.922;4.760;2022-11-21T09:12:53;7.27;;;2.87;;
20671;SDS011;10495;50.922;4.760;2022-11-21T09:15:22;8.73;;;3.13;;
20671;SDS011;10495;50.922;4.760;2022-11-21T09:18:06;8.67;;;2.70;;
20671;SDS011;10495;50.922;4.760;2022-11-21T09:20:35;7.93;;;3.23;;
20671;SDS011;10495;50.922;4.760;2022-11-21T09:23:07;9.57;;;3.03;;
20671;SDS011;10495;50.922;4.760;2022-11-21T09:25:37;10.50;;;2.93;;
20671;SDS011;10495;50.922;4.760;2022-11-21T09:28:03;7.47;;;3.30;;
20671;SDS011;10495;50.922;4.760;2022-11-21T09:30:30;6.73;;;3.53;;
20671;SDS011;10495;50.922;4.760;2022-11-21T09:33:02;4.67;;;2.80;;
20671;SDS011;10495;50.922;4.760;2022-11-21T09:35:29;7.87;;;3.20;;
20671;SDS011;10495;50.922;4.760;2022-11-21T09:37:54;6.67;;;2.97;;
20671;SDS011;10495;50.922;4.760;2022-11-21T09:40:20;4.80;;;2.70;;
20671;SDS011;10495;50.922;4.760;2022-11-21T09:51:25;8.50;;;3.87;;
20671;SDS011;10495;50.922;4.760;2022-11-21T09:54:01;7.07;;;3.13;;
20671;SDS011;10495;50.922;4.760;2022-11-21T09:56:35;7.00;;;3.00;;
20671;SDS011;10495;50.922;4.760;2022-11-21T09:59:07;8.67;;;3.20;;
20671;SDS011;10495;50.922;4.760;2022-11-21T10:01:39;9.77;;;2.90;;
20671;SDS011;10495;50.922;4.760;2022-11-21T10:04:05;4.93;;;2.60;;
20671;SDS011;10495;50.922;4.760;2022-11-21T10:06:32;4.53;;;2.40;;
20671;SDS011;10495;50.922;4.760;2022-11-21T10:23:34;7.70;;;3.70;;
20671;SDS011;10495;50.922;4.760;2022-11-21T10:26:21;8.53;;;3.97;;
20671;SDS011;10495;50.922;4.760;2022-11-21T10:28:50;8.97;;;4.17;;
20671;SDS011;10495;50.922;4.760;2022-11-21T10:31:20;7.73;;;4.10;;
20671;SDS011;10495;50.922;4.760;2022-11-21T10:33:46;8.33;;;5.10;;
20671;SDS011;10495;50.922;4.760;2022-11-21T10:36:23;9.40;;;4.57;;
20671;SDS011;10495;50.922;4.760;2022-11-21T10:38:57;7.10;;;4.70;;
20671;SDS011;10495;50.922;4.760;2022-11-21T10:41:39;11.40;;;4.83;;
20671;SDS011;10495;50.922;4.760;2022-11-21T10:44:49;7.47;;;3.90;;
20671;SDS011;10495;50.922;4.760;2022-11-21T10:47:34;9.33;;;4.33;;
20671;SDS011;10495;50.922;4.760;2022-11-21T10:56:10;10.63;;;4.00;;
20671;SDS011;10495;50.922;4.760;2022-11-21T10:58:40;10.27;;;4.27;;
20671;SDS011;10495;50.922;4.760;2022-11-21T11:01:24;7.07;;;3.80;;
20671;SDS011;10495;50.922;4.760;2022-11-21T11:06:34;6.97;;;4.00;;
20671;SDS011;10495;50.922;4.760;2022-11-21T11:09:16;10.00;;;3.90;;
20671;SDS011;10495;50.922;4.760;2022-11-21T11:11:52;8.90;;;3.67;;
20671;SDS011;10495;50.922;4.760;2022-11-21T11:14:38;5.57;;;3.80;;
20671;SDS011;10495;50.922;4.760;2022-11-21T11:17:03;4.70;;;3.27;;
20671;SDS011;10495;50.922;4.760;2022-11-21T11:19:29;5.03;;;3.40;;
20671;SDS011;10495;50.922;4.760;2022-11-21T11:21:55;6.93;;;4.03;;
20671;SDS011;10495;50.922;4.760;2022-11-21T11:24:24;4.60;;;3.30;;
20671;SDS011;10495;50.922;4.760;2022-11-21T11:29:27;7.70;;;3.43;;
20671;SDS011;10495;50.922;4.760;2022-11-21T11:31:56;7.20;;;3.57;;
20671;SDS011;10495;50.922;4.760;2022-11-21T11:37:12;10.37;;;3.23;;
20671;SDS011;10495;50.922;4.760;2022-11-21T11:39:54;9.00;;;4.23;;
20671;SDS011;10495;50.922;4.760;2022-11-21T11:43:12;7.83;;;3.20;;
20671;SDS011;10495;50.922;4.760;2022-11-21T11:49:35;11.40;;;4.13;;
20671;SDS011;10495;50.922;4.760;2022-11-21T11:52:27;9.77;;;5.57;;
20671;SDS011;10495;50.922;4.760;2022-11-21T11:55:25;10.07;;;4.00;;
20671;SDS011;10495;50.922;4.760;2022-11-21T11:58:28;10.00;;;4.20;;
20671;SDS011;10495;50.922;4.760;2022-11-21T12:01:09;14.87;;;4.23;;
20671;SDS011;10495;50.922;4.760;2022-11-21T12:09:05;8.43;;;4.53;;
20671;SDS011;10495;50.922;4.760;2022-11-21T12:14:43;9.37;;;4.07;;
20671;SDS011;10495;50.922;4.760;2022-11-21T12:20:23;7.43;;;4.10;;
20671;SDS011;10495;50.922;4.760;2022-11-21T12:22:53;13.13;;;4.27;;
20671;SDS011;10495;50.922;4.760;2022-11-21T12:25:24;5.90;;;3.63;;
20671;SDS011;10495;50.922;4.760;2022-11-21T12:27:57;9.33;;;3.60;;
20671;SDS011;10495;50.922;4.760;2022-11-21T12:33:15;5.60;;;3.37;;
20671;SDS011;10495;50.922;4.760;2022-11-21T12:38:43;7.13;;;3.00;;
20671;SDS011;10495;50.922;4.760;2022-11-21T12:41:27;8.43;;;4.07;;
20671;SDS011;10495;50.922;4.760;2022-11-21T12:44:35;9.43;;;3.33;;
20671;SDS011;10495;50.922;4.760;2022-11-21T12:47:33;7.37;;;3.63;;
20671;SDS011;10495;50.922;4.760;2022-11-21T12:56:46;11.07;;;4.63;;
20671;SDS011;10495;50.922;4.760;2022-11-21T12:59:17;10.60;;;3.07;;
20671;SDS011;10495;50.922;4.760;2022-11-21T13:04:37;12.77;;;4.80;;
20671;SDS011;10495;50.922;4.760;2022-11-21T13:07:05;8.40;;;3.80;;
20671;SDS011;10495;50.922;4.760;2022-11-21T13:09:36;12.03;;;4.77;;
20671;SDS011;10495;50.922;4.760;2022-11-21T13:12:10;10.00;;;3.70;;
20671;SDS011;10495;50.922;4.760;2022-11-21T13:14:46;11.23;;;4.33;;
20671;SDS011;10495;50.922;4.760;2022-11-21T13:25:02;8.83;;;3.97;;
20671;SDS011;10495;50.922;4.760;2022-11-21T13:27:37;9.43;;;2.93;;
20671;SDS011;10495;50.922;4.760;2022-11-21T13:32:51;10.77;;;3.80;;
20671;SDS011;10495;50.922;4.760;2022-11-21T13:45:43;7.17;;;3.07;;
20671;SDS011;10495;50.922;4.760;2022-11-21T13:56:05;8.57;;;2.90;;
20671;SDS011;10495;50.922;4.760;2022-11-21T14:10:03;8.47;;;2.57;;
20671;SDS011;10495;50.922;4.760;2022-11-21T14:12:41;9.03;;;2.73;;
20671;SDS011;10495;50.922;4.760;2022-11-21T14:15:27;9.43;;;4.20;;
20671;SDS011;10495;50.922;4.760;2022-11-21T14:18:05;5.17;;;3.40;;
20671;SDS011;10495;50.922;4.760;2022-11-21T14:20:58;10.73;;;3.03;;
20671;SDS011;10495;50.922;4.760;2022-11-21T14:23:25;5.80;;;2.47;;
20671;SDS011;10495;50.922;4.760;2022-11-21T14:28:25;13.27;;;6.20;;
20671;SDS011;10495;50.922;4.760;2022-11-21T14:31:02;5.00;;;2.90;;
20671;SDS011;10495;50.922;4.760;2022-11-21T14:33:33;6.27;;;2.77;;
20671;SDS011;10495;50.922;4.760;2022-11-21T14:38:30;4.50;;;2.30;;
20671;SDS011;10495;50.922;4.760;2022-11-21T14:46:36;7.00;;;2.40;;
20671;SDS011;10495;50.922;4.760;2022-11-21T14:51:45;6.67;;;2.47;;
20671;SDS011;10495;50.922;4.760;2022-11-21T14:54:23;20.30;;;8.83;;
20671;SDS011;10495;50.922;4.760;2022-11-21T14:56:59;7.60;;;2.90;;
20671;SDS011;10495;50.922;4.760;2022-11-21T14:59:32;6.73;;;3.27;;
20671;SDS011;10495;50.922;4.760;2022-11-21T15:02:25;6.73;;;2.43;;
20671;SDS011;10495;50.922;4.760;2022-11-21T15:04:59;5.93;;;2.43;;
20671;SDS011;10495;50.922;4.760;2022-11-21T15:07:42;6.07;;;2.40;;
20671;SDS011;10495;50.922;4.760;2022-11-21T15:10:12;7.07;;;2.63;;
20671;SDS011;10495;50.922;4.760;2022-11-21T15:15:24;10.67;;;2.60;;
20671;SDS011;10495;50.922;4.760;2022-11-21T15:17:57;5.57;;;2.00;;
20671;SDS011;10495;50.922;4.760;2022-11-21T15:20:25;12.30;;;2.77;;
20671;SDS011;10495;50.922;4.760;2022-11-21T15:22:56;4.97;;;2.50;;
20671;SDS011;10495;50.922;4.760;2022-11-21T15:25:24;8.43;;;2.90;;
20671;SDS011;10495;50.922;4.760;2022-11-21T15:32:59;7.67;;;3.13;;
20671;SDS011;10495;50.922;4.760;2022-11-21T15:35:38;7.30;;;3.50;;
20671;SDS011;10495;50.922;4.760;2022-11-21T15:38:21;9.37;;;3.10;;
20671;SDS011;10495;50.922;4.760;2022-11-21T15:41:23;8.03;;;3.70;;
20671;SDS011;10495;50.922;4.760;2022-11-21T15:49:09;8.10;;;3.37;;
20671;SDS011;10495;50.922;4.760;2022-11-21T15:54:12;7.87;;;3.20;;
20671;SDS011;10495;50.922;4.760;2022-11-21T15:56:42;8.03;;;3.80;;
20671;SDS011;10495;50.922;4.760;2022-11-21T15:59:08;6.67;;;2.67;;
20671;SDS011;10495;50.922;4.760;2022-11-21T16:01:34;10.30;;;3.10;;
20671;SDS011;10495;50.922;4.760;2022-11-21T16:04:01;9.57;;;2.90;;
20671;SDS011;10495;50.922;4.760;2022-11-21T16:06:29;5.77;;;2.43;;
20671;SDS011;10495;50.922;4.760;2022-11-21T16:08:55;11.43;;;3.33;;
20671;SDS011;10495;50.922;4.760;2022-11-21T16:11:26;14.40;;;2.90;;
20671;SDS011;10495;50.922;4.760;2022-11-21T16:13:56;6.87;;;2.43;;
20671;SDS011;10495;50.922;4.760;2022-11-21T16:16:24;9.37;;;4.00;;
20671;SDS011;10495;50.922;4.760;2022-11-21T16:18:51;9.80;;;3.00;;
20671;SDS011;10495;50.922;4.760;2022-11-21T16:21:17;7.53;;;2.70;;
20671;SDS011;10495;50.922;4.760;2022-11-21T16:23:43;10.60;;;2.80;;
20671;SDS011;10495;50.922;4.760;2022-11-21T16:26:09;8.37;;;3.93;;
20671;SDS011;10495;50.922;4.760;2022-11-21T16:28:35;10.17;;;3.97;;
20671;SDS011;10495;50.922;4.760;2022-11-21T16:31:02;9.20;;;3.50;;
20671;SDS011;10495;50.922;4.760;2022-11-21T16:33:29;8.33;;;3.83;;
20671;SDS011;10495;50.922;4.760;2022-11-21T16:35:55;7.47;;;2.93;;
20671;SDS011;10495;50.922;4.760;2022-11-21T16:38:24;9.37;;;2.93;;
20671;SDS011;10495;50.922;4.760;2022-11-21T16:40:58;6.23;;;2.53;;
20671;SDS011;10495;50.922;4.760;2022-11-21T16:43:25;9.33;;;2.90;;
20671;SDS011;10495;50.922;4.760;2022-11-21T16:45:53;5.97;;;2.83;;
20671;SDS011;10495;50.922;4.760;2022-11-21T16:48:19;11.67;;;3.17;;
20671;SDS011;10495;50.922;4.760;2022-11-21T16:50:46;8.07;;;3.27;;
20671;SDS011;10495;50.922;4.760;2022-11-21T16:53:12;12.10;;;3.60;;
20671;SDS011;10495;50.922;4.760;2022-11-21T16:55:38;5.63;;;3.37;;
20671;SDS011;10495;50.922;4.760;2022-11-21T16:58:04;7.27;;;3.40;;
20671;SDS011;10495;50.922;4.760;2022-11-21T17:00:30;10.33;;;3.63;;
20671;SDS011;10495;50.922;4.760;2022-11-21T17:02:56;11.17;;;3.63;;
20671;SDS011;10495;50.922;4.760;2022-11-21T17:05:22;9.37;;;4.03;;
20671;SDS011;10495;50.922;4.760;2022-11-21T17:07:49;9.33;;;3.20;;
20671;SDS011;10495;50.922;4.760;2022-11-21T17:10:15;12.10;;;3.77;;
20671;SDS011;10495;50.922;4.760;2022-11-21T17:12:41;8.20;;;3.50;;
20671;SDS011;10495;50.922;4.760;2022-11-21T17:15:12;10.57;;;3.93;;
20671;SDS011;10495;50.922;4.760;2022-11-21T17:17:39;12.97;;;4.27;;
20671;SDS011;10495;50.922;4.760;2022-11-21T17:20:05;6.60;;;3.00;;
20671;SDS011;10495;50.922;4.760;2022-11-21T17:22:32;11.77;;;3.43;;
20671;SDS011;10495;50.922;4.760;2022-11-21T17:24:58;19.73;;;8.20;;
20671;SDS011;10495;50.922;4.760;2022-11-21T17:27:23;18.30;;;9.80;;
20671;SDS011;10495;50.922;4.760;2022-11-21T17:29:49;21.37;;;10.67;;
20671;SDS011;10495;50.922;4.760;2022-11-21T17:32:15;20.73;;;10.43;;
20671;SDS011;10495;50.922;4.760;2022-11-21T17:34:41;7.70;;;3.67;;
20671;SDS011;10495;50.922;4.760;2022-11-21T17:37:06;7.87;;;3.27;;